• Join FlightAware (Why Join?)
  • Login
  • US Flag 
08:46AM EDT


 

Airport Tracker/Info


-or-


 

Live Flight TrackerFlight Track Log ✈ UAL423 ✈ 18-May-2012 ✈ KDEN - KSFO

Flight Track Log - Related Links

Times and Time Zones

All times are in EDT time to prevent confusion due to time zone crossing. See the UAL423 flight status page for this flight to view local times or setup timezone preferences in your user account.

Time Position Orientation Groundspeed Altitude Reporting Facility
EDT Latitude Longitude Course Direction KTS MPH feet Rate Location/Type
11:57PM 39.9000 -104.7167 268° West 200 230 7,100  Level Denver TRACON
12:02AM 39.8872 -105.2175 244° Southwest 303 349 21,200 2,580 Climbing Denver Center
12:03AM 39.8467 -105.3264 259° West 323 372 22,700 1,320 Climbing Denver Center
12:04AM 39.8250 -105.4756 263° West 384 442 23,900 1,500 Climbing Denver Center
12:05AM 39.8094 -105.6300 263° West 430 495 25,800 3,000 Climbing Denver Center
12:06AM 39.7939 -105.7842 262° West 443 510 30,000 3,240 Climbing Denver Center
12:07AM 39.7800 -105.9194 264° West 405 466 32,300 1,320 Climbing Denver Center
12:08AM 39.7681 -106.0625 263° West 398 458 32,700 420 Climbing Denver Center
12:09AM 39.7558 -106.1950 260° West 405 466 33,200 720 Climbing Denver Center
12:10AM 39.7353 -106.3492 264° West 434 499 34,200 1,080 Climbing Denver Center
12:11AM 39.7228 -106.5083 265° West 443 510 35,400 900 Climbing Denver Center
12:12AM 39.7122 -106.6675 262° West 443 510 36,000 300 Climbing Denver Center
12:13AM 39.6953 -106.8242 260° West 443 510 36,000  Level Denver Center
12:14AM 39.6739 -106.9858 263° West 454 522 36,000  Level Denver Center
12:15AM 39.6583 -107.1422 262° West 454 522 36,000  Level Denver Center
12:16AM 39.6383 -107.3225 262° West 454 522 36,000  Level Denver Center
12:17AM 39.6203 -107.4814 262° West 447 514 36,000  Level Denver Center
12:18AM 39.6044 -107.6239 263° West 447 514 36,000  Level Denver Center
12:19AM 39.5881 -107.7853 263° West 452 520 36,000  Level Denver Center
12:20AM 39.5717 -107.9467 262° West 458 527 36,000  Level Denver Center
12:21AM 39.5525 -108.1242 259° West 463 533 36,000  Level Denver Center
12:22AM 39.5314 -108.2689 261° West 461 531 36,000  Level Denver Center
12:23AM 39.5122 -108.4300 261° West 461 531 36,000  Level Denver Center
12:24AM 39.4903 -108.6094 260° West 468 539 36,000  Level Denver Center
12:25AM 39.4681 -108.7756 263° West 468 539 36,000  Level Denver Center
12:26AM 39.4522 -108.9392 261° West 468 539 36,000  Level Denver Center
12:27AM 39.4319 -109.1025 261° West 468 539 36,000  Level Denver Center
12:28AM 39.4139 -109.2469 261° West 459 528 36,000  Level Denver Center
12:29AM 39.3928 -109.4233 260° West 459 528 36,000  Level Denver Center
12:30AM 39.3653 -109.6322 261° West 451 519 36,000  Level Salt Lake Center
12:31AM 39.3428 -109.8122 260° West 454 522 36,000  Level Salt Lake Center
12:32AM 39.3222 -109.9656 260° West 454 522 36,000  Level Salt Lake Center
12:33AM 39.3014 -110.1189 260° West 453 521 36,000  Level Salt Lake Center
12:34AM 39.2772 -110.2983 260° West 454 522 36,000  Level Salt Lake Center
12:35AM 39.2553 -110.4564 260° West 462 532 36,000  Level Salt Lake Center
12:36AM 39.2292 -110.6425 260° West 469 540 36,000  Level Salt Lake Center
12:38AM 39.2067 -110.7997 260° West 468 539 36,000  Level Salt Lake Center
12:39AM 39.1844 -110.9586 260° West 469 540 36,000  Level Salt Lake Center
12:40AM 39.1583 -111.1414 260° West 467 537 36,000  Level Salt Lake Center
12:41AM 39.1372 -111.2992 259° West 462 532 36,000  Level Salt Lake Center
12:42AM 39.1133 -111.4625 259° West 460 529 36,000  Level Salt Lake Center
12:43AM 39.0894 -111.6261 259° West 460 529 36,000  Level Salt Lake Center
12:44AM 39.0650 -111.7872 259° West 456 525 36,000  Level Salt Lake Center
12:45AM 39.0406 -111.9475 259° West 452 520 36,000  Level Salt Lake Center
12:46AM 39.0161 -112.1086 259° West 453 521 36,000  Level Salt Lake Center
12:47AM 38.9914 -112.2706 258° West 455 524 36,000  Level Salt Lake Center
12:48AM 38.9653 -112.4333 259° West 458 527 36,000  Level Salt Lake Center
12:49AM 38.9403 -112.5972 259° West 461 531 36,000  Level Salt Lake Center
12:50AM 38.9150 -112.7600 259° West 460 529 36,000  Level Salt Lake Center
12:51AM 38.8906 -112.9194 258° West 454 522 36,000  Level Salt Lake Center
12:52AM 38.8639 -113.0750 258° West 447 514 36,000  Level Salt Lake Center
12:53AM 38.8331 -113.2653 259° West 447 514 36,000  Level Salt Lake Center
12:54AM 38.8078 -113.4267 259° West 452 520 36,000  Level Salt Lake Center
12:55AM 38.7822 -113.5872 258° West 454 522 36,000  Level Salt Lake Center
12:56AM 38.7556 -113.7450 258° West 451 519 36,000  Level Salt Lake Center
12:57AM 38.7283 -113.9031 258° West 450 518 36,000  Level Salt Lake Center
12:58AM 38.7025 -114.0556 258° West 440 506 36,000  Level Salt Lake Center
12:59AM 38.6764 -114.2064 258° West 432 497 36,000  Level Salt Lake Center
01:00AM 38.6511 -114.3578 257° West 431 496 36,000  Level Salt Lake Center
01:01AM 38.6236 -114.5100 257° West 432 497 36,000  Level Salt Lake Center
01:02AM 38.5964 -114.6608 257° West 432 497 36,000  Level Salt Lake Center
01:03AM 38.5700 -114.8111 257° West 430 495 36,000  Level Salt Lake Center
01:04AM 38.5433 -114.9614 257° West 429 494 36,000  Level Salt Lake Center
01:05AM 38.5158 -115.1144 257° West 433 498 36,000  Level Salt Lake Center
01:06AM 38.4886 -115.2653 257° West 433 498 36,000  Level Salt Lake Center
01:07AM 38.4608 -115.4136 257° West 435 501 36,000  Level Salt Lake Center
01:08AM 38.4336 -115.5636 257° West 435 501 36,000  Level Salt Lake Center
01:09AM 38.4058 -115.7136 256° West 435 501 36,000  Level Salt Lake Center
01:10AM 38.3775 -115.8633 257° West 435 501 36,000  Level Salt Lake Center
01:11AM 38.3500 -116.0114 256° West 432 497 36,000  Level Salt Lake Center
01:12AM 38.3214 -116.1608 257° West 433 498 36,000  Level Salt Lake Center
01:13AM 38.2878 -116.3394 256° West 433 498 36,000  Level Salt Lake Center
01:14AM 38.2597 -116.4864 256° West 429 494 36,000  Level Salt Lake Center
01:15AM 38.2311 -116.6325 256° West 427 491 36,000  Level Salt Lake Center
01:16AM 38.2028 -116.7789 256° West 427 491 36,000  Level Salt Lake Center
01:17AM 38.1739 -116.9236 256° West 424 488 36,000  Level Salt Lake Center
01:18AM 38.1450 -117.0692 256° West 423 487 36,000  Level Salt Lake Center
01:19AM 38.1150 -117.2206 255° West 428 493 36,000  Level Salt Lake Center
01:20AM 38.0833 -117.3747 257° West 427 491 36,000  Level Salt Lake Center
01:21AM 38.0617 -117.4942 255° West 434 499 36,000  Level Oakland Center
01:22AM 38.0325 -117.6353 256° West 434 499 36,000  Level Oakland Center
01:23AM 38.0031 -117.7817 263° West 429 494 36,000  Level Oakland Center
01:24AM 37.9883 -117.9272 263° West 429 494 36,000  Level Oakland Center
01:25AM 37.9733 -118.0753 262° West 429 494 36,000  Level Oakland Center
01:26AM 37.9581 -118.2208 262° West 429 494 36,000  Level Oakland Center
01:27AM 37.9425 -118.3689 262° West 429 494 36,000  Level Oakland Center
01:28AM 37.9269 -118.5117 261° West 424 488 36,000  Level Oakland Center
01:29AM 37.9089 -118.6569 263° West 424 488 36,000  Level Oakland Center
01:30AM 37.8950 -118.8047 261° West 429 494 36,000  Level Oakland Center
01:31AM 37.8769 -118.9528 263° West 429 494 36,000  Level Oakland Center
01:32AM 37.8644 -119.0767 261° West 419 482 36,000  Level Oakland Center
01:33AM 37.8456 -119.2192 261° West 414 476 36,000  Level Oakland Center
01:34AM 37.8289 -119.3589 261° West 414 476 36,000  Level Oakland Center
01:35AM 37.8119 -119.5014 261° West 409 471 36,000  Level Oakland Center
01:36AM 37.7931 -119.6542 260° West 409 471 36,000  Level Oakland Center
01:37AM 37.7736 -119.7964 262° West 409 471 36,000  Level Oakland Center
01:38AM 37.7583 -119.9358 259° West 409 471 36,000 -780 Level Oakland Center
01:39AM 37.7364 -120.0806 262° West 414 476 34,500 -2,100 Descending Oakland Center
01:40AM 37.7208 -120.2172 261° West 409 471 31,900 -3,060 Descending Oakland Center
01:41AM 37.7028 -120.3592 261° West 409 471 28,400 -2,820 Descending Oakland Center
01:42AM 37.6847 -120.5036 260° West 414 476 26,300 -1,980 Descending Oakland Center
01:43AM 37.6667 -120.6333 261° West 385 443 24,700 -2,220 Descending Northern Cal TRACON
01:44AM 37.6500 -120.7667 260° West 377 434 22,100 -2,280 Descending Northern Cal TRACON
01:45AM 37.6333 -120.8833 261° West 379 436 20,200 -1,620 Descending Northern Cal TRACON
01:46AM 37.6167 -121.0167 260° West 361 415 18,900 -1,200 Descending Northern Cal TRACON
01:47AM 37.6000 -121.1333 270° West 348 400 17,800 -1,860 Descending Northern Cal TRACON
01:48AM 37.6000 -121.2667 258° West 347 399 15,000 -2,280 Descending Northern Cal TRACON
01:49AM 37.5833 -121.3667 260° West 343 395 13,300 -1,980 Descending Northern Cal TRACON
01:50AM 37.5667 -121.4833 258° West 336 387 11,300 -1,200 Descending Northern Cal TRACON
01:51AM 37.5500 -121.5833 258° West 307 353 11,000 -540 Descending Northern Cal TRACON
01:52AM 37.5333 -121.6833 247° West 287 330 10,300 -1,080 Descending Northern Cal TRACON
01:53AM 37.5000 -121.7833 256° West 286 329 8,800 -1,260 Descending Northern Cal TRACON
01:54AM 37.4833 -121.8667 284° West 277 319 8,000 -420 Descending Northern Cal TRACON
01:55AM 37.5000 -121.9500 288° West 230 265 8,000 -420 Level Northern Cal TRACON
01:56AM 37.5167 -122.0167 288° West 194 223 7,200 -1,140 Descending Northern Cal TRACON
01:57AM 37.5333 -122.0833 288° West 191 220 5,800 -1,320 Descending Northern Cal TRACON
01:58AM 37.5500 -122.1500 293° West 183 211 4,600 -1,320 Descending Northern Cal TRACON
01:59AM 37.5667 -122.2000 293° West 160 184 3,200 -1,380 Descending Northern Cal TRACON
02:00AM 37.5833 -122.2500 270° West 147 169 1,900 -1,020 Descending Northern Cal TRACON
02:01AM 37.5833 -122.3000 302° West 138 159 1,200 -720 Descending Northern Cal TRACON
02:02AM 37.6000 -122.3333 302° West 126 145 500 -720 Descending Northern Cal TRACON